createdAt,value
2023-01-18T00:02:19.540Z,98.19
2023-01-18T00:04:46.301Z,97.95
2023-01-18T00:07:12.982Z,97.16
2023-01-18T00:09:39.652Z,97.92
2023-01-18T00:12:06.736Z,97.33
2023-01-18T00:14:33.421Z,97.21
2023-01-18T00:17:00.128Z,97.25
2023-01-18T00:19:28.200Z,96.92
2023-01-18T00:21:54.853Z,97.10
2023-01-18T00:24:21.553Z,96.62
2023-01-18T00:26:48.391Z,97.17
2023-01-18T00:29:15.305Z,97.11
2023-01-18T00:31:42.026Z,97.16
2023-01-18T00:34:08.870Z,96.82
2023-01-18T00:36:37.114Z,96.80
2023-01-18T00:39:04.924Z,97.82
2023-01-18T00:41:31.623Z,97.50
2023-01-18T00:43:58.321Z,97.06
2023-01-18T00:46:26.842Z,97.08
2023-01-18T00:48:55.057Z,98.18
2023-01-18T00:51:24.127Z,97.56
2023-01-18T00:53:52.330Z,97.32
2023-01-18T00:56:21.277Z,97.08
2023-01-18T00:58:48.176Z,97.23
2023-01-18T01:01:15.257Z,96.77
2023-01-18T01:03:42.054Z,96.80
2023-01-18T01:06:14.625Z,96.66
2023-01-18T01:08:41.319Z,96.04
2023-01-18T01:11:11.997Z,95.69
2023-01-18T01:13:41.825Z,96.10
2023-01-18T01:16:10.327Z,96.46
2023-01-18T01:18:37.045Z,96.16
2023-01-18T01:21:04.222Z,95.42
2023-01-18T01:23:30.946Z,95.65
2023-01-18T01:25:58.325Z,95.41
2023-01-18T01:28:26.388Z,95.46
2023-01-18T01:30:57.350Z,95.23
2023-01-18T01:33:24.246Z,95.39
2023-01-18T01:35:55.908Z,95.57
2023-01-18T01:38:22.602Z,95.17
2023-01-18T01:40:56.893Z,94.75
2023-01-18T01:43:40.730Z,94.66
2023-01-18T01:46:19.767Z,94.63
2023-01-18T01:48:47.976Z,94.78
2023-01-18T01:51:16.609Z,94.69
2023-01-18T01:53:43.523Z,94.38
2023-01-18T01:56:11.545Z,94.79
2023-01-18T01:58:41.232Z,94.61
2023-01-18T02:01:08.099Z,94.64
2023-01-18T02:03:40.335Z,94.51
2023-01-18T02:06:15.378Z,94.72
2023-01-18T02:08:44.395Z,94.85
2023-01-18T02:11:11.907Z,94.92
2023-01-18T02:13:40.063Z,94.61
2023-01-18T02:16:15.200Z,94.72
2023-01-18T02:18:49.883Z,95.08
2023-01-18T02:21:18.389Z,95.67
2023-01-18T02:24:27.364Z,95.83
2023-01-18T02:27:05.622Z,95.99
2023-01-18T02:30:00.924Z,96.26
2023-01-18T02:32:38.973Z,96.12
2023-01-18T02:35:11.002Z,96.03
2023-01-18T02:37:48.293Z,96.06
2023-01-18T02:40:24.813Z,96.54
2023-01-18T02:42:52.464Z,96.81
2023-01-18T02:45:26.000Z,96.68
2023-01-18T02:47:54.298Z,96.16
2023-01-18T02:50:23.059Z,96.08
2023-01-18T02:52:49.736Z,96.74
2023-01-18T02:55:26.578Z,96.76
2023-01-18T02:58:02.719Z,97.31
2023-01-18T03:00:37.052Z,97.20
2023-01-18T03:03:08.001Z,97.20
2023-01-18T03:05:37.612Z,96.93
2023-01-18T03:08:10.087Z,96.73
2023-01-18T03:10:45.266Z,96.54
2023-01-18T03:13:19.701Z,97.42
2023-01-18T03:15:51.828Z,97.46
2023-01-18T03:18:26.357Z,97.40
2023-01-18T03:20:54.507Z,97.65
2023-01-18T03:23:26.280Z,97.31
2023-01-18T03:25:59.354Z,97.46
2023-01-18T03:28:32.266Z,96.89
2023-01-18T03:31:05.220Z,96.64
2023-01-18T03:33:36.141Z,96.28
2023-01-18T03:36:04.549Z,96.73
2023-01-18T03:38:33.899Z,96.78
2023-01-18T03:41:02.763Z,97.21
2023-01-18T03:43:33.660Z,96.93
2023-01-18T03:46:02.445Z,97.42
2023-01-18T03:48:29.444Z,97.11
2023-01-18T03:51:05.035Z,97.05
2023-01-18T03:53:38.112Z,97.93
2023-01-18T03:56:10.529Z,98.11
2023-01-18T03:58:37.258Z,98.93
2023-01-18T04:01:05.927Z,98.20
2023-01-18T04:03:33.135Z,98.20
2023-01-18T04:06:01.755Z,98.74
2023-01-18T04:08:28.461Z,99.34
2023-01-18T04:10:55.171Z,99.69
2023-01-18T04:13:22.013Z,99.25
2023-01-18T04:15:48.731Z,99.19
2023-01-18T04:18:16.855Z,99.31
2023-01-18T04:20:43.599Z,99.56
2023-01-18T04:23:10.300Z,99.40
2023-01-18T04:25:37.051Z,98.67
2023-01-18T04:28:04.000Z,98.91
2023-01-18T04:30:30.694Z,99.22
2023-01-18T04:32:57.726Z,99.22
2023-01-18T04:35:26.009Z,98.63
2023-01-18T04:37:53.104Z,98.52
2023-01-18T04:40:19.986Z,98.52
2023-01-18T04:42:54.970Z,98.14
2023-01-18T04:45:21.700Z,97.77
2023-01-18T04:47:48.406Z,97.79
2023-01-18T04:50:15.183Z,97.63
2023-01-18T04:52:43.351Z,97.52
2023-01-18T04:55:10.485Z,97.69
2023-01-18T04:57:39.882Z,97.46
2023-01-18T05:00:08.897Z,97.57
2023-01-18T05:02:35.748Z,97.03
2023-01-18T05:05:02.499Z,97.05
2023-01-18T05:07:29.220Z,96.89
2023-01-18T05:09:57.304Z,96.85
2023-01-18T05:12:24.089Z,96.72
2023-01-18T05:14:50.773Z,97.09
2023-01-18T05:17:17.454Z,97.25
2023-01-18T05:19:44.169Z,97.22
2023-01-18T05:22:10.884Z,97.49
2023-01-18T05:24:37.606Z,98.18
2023-01-18T05:27:05.697Z,98.69
2023-01-18T05:29:32.412Z,98.64
2023-01-18T05:31:59.075Z,98.09
2023-01-18T05:34:28.730Z,98.10
2023-01-18T05:36:55.461Z,97.93
2023-01-18T05:39:22.161Z,97.82
2023-01-18T05:41:48.944Z,97.43
2023-01-18T05:44:17.024Z,97.26
2023-01-18T05:46:43.714Z,97.19
2023-01-18T05:49:10.375Z,97.32
2023-01-18T05:51:37.043Z,96.66
2023-01-18T05:54:03.832Z,96.23
2023-01-18T05:56:30.519Z,96.35
2023-01-18T05:58:57.482Z,96.46
2023-01-18T06:01:25.700Z,96.27
2023-01-18T06:03:52.417Z,96.11
2023-01-18T06:06:20.263Z,95.98
2023-01-18T06:08:46.966Z,96.32
2023-01-18T06:11:13.624Z,96.27
2023-01-18T06:13:40.306Z,96.43
2023-01-18T06:16:07.546Z,96.48
2023-01-18T06:18:35.658Z,96.14
2023-01-18T06:21:03.032Z,96.00
2023-01-18T06:23:30.562Z,96.06
2023-01-18T06:25:57.738Z,96.14
2023-01-18T06:28:24.648Z,96.22
2023-01-18T06:30:53.051Z,95.83
2023-01-18T06:33:19.758Z,96.19
2023-01-18T06:35:47.921Z,96.25
2023-01-18T06:38:14.772Z,95.90
2023-01-18T06:40:41.699Z,95.32
2023-01-18T06:43:08.615Z,95.01
2023-01-18T06:45:35.796Z,94.84
2023-01-18T06:48:02.481Z,94.63
2023-01-18T06:50:29.163Z,94.72
2023-01-18T06:52:57.570Z,94.79
2023-01-18T06:55:24.401Z,94.56
2023-01-18T06:57:51.092Z,94.51
2023-01-18T07:00:18.570Z,94.55
2023-01-18T07:02:45.255Z,94.32
2023-01-18T07:05:12.046Z,94.69
2023-01-18T07:07:38.719Z,94.77
2023-01-18T07:10:08.135Z,94.89
2023-01-18T07:12:34.865Z,94.88
2023-01-18T07:15:09.910Z,95.06
2023-01-18T07:17:47.118Z,94.94
2023-01-18T07:20:14.037Z,94.85
2023-01-18T07:22:40.816Z,94.86
2023-01-18T07:25:09.622Z,94.95
2023-01-18T07:27:36.351Z,95.07
2023-01-18T07:30:03.167Z,95.15
2023-01-18T07:32:29.985Z,94.64
2023-01-18T07:34:59.356Z,94.53
2023-01-18T07:37:26.152Z,94.56
2023-01-18T07:39:52.935Z,94.99
2023-01-18T07:42:20.972Z,94.85
2023-01-18T07:44:47.730Z,94.92
2023-01-18T07:47:14.412Z,95.14
2023-01-18T07:49:41.071Z,94.96
2023-01-18T07:52:07.766Z,94.88
2023-01-18T07:54:34.748Z,94.62
2023-01-18T07:57:01.726Z,94.36
2023-01-18T07:59:29.853Z,93.83
2023-01-18T08:01:56.563Z,93.34
2023-01-18T08:04:23.391Z,93.32
2023-01-18T08:06:50.231Z,93.30
2023-01-18T08:09:17.125Z,93.04
2023-01-18T08:11:43.823Z,93.03
2023-01-18T08:14:10.479Z,92.75
2023-01-18T08:16:38.575Z,92.69
2023-01-18T08:19:05.282Z,92.33
2023-01-18T08:21:31.951Z,92.24
2023-01-18T08:23:58.679Z,91.86
2023-01-18T08:26:25.527Z,92.00
2023-01-18T08:28:52.214Z,92.01
2023-01-18T08:31:21.245Z,92.43
2023-01-18T08:33:49.549Z,92.86
2023-01-18T08:36:18.349Z,93.08
2023-01-18T08:38:47.817Z,93.17
2023-01-18T08:41:14.486Z,93.03
2023-01-18T08:43:41.174Z,93.11
2023-01-18T08:46:07.872Z,92.83
2023-01-18T08:48:34.826Z,93.11
2023-01-18T08:51:03.469Z,94.08
2023-01-18T08:53:31.366Z,94.64
2023-01-18T08:55:58.405Z,94.54
2023-01-18T08:58:25.360Z,94.28
2023-01-18T09:00:52.424Z,94.39
2023-01-18T09:03:20.530Z,95.03
2023-01-18T09:05:47.286Z,95.11
2023-01-18T09:08:15.509Z,94.50
2023-01-18T09:10:42.210Z,94.04
2023-01-18T09:13:08.861Z,93.78
2023-01-18T09:15:35.625Z,93.63
2023-01-18T09:18:02.310Z,93.45
2023-01-18T09:20:29.000Z,93.17
2023-01-18T09:22:58.719Z,93.08
2023-01-18T09:25:26.967Z,92.63
2023-01-18T09:27:53.623Z,92.24
2023-01-18T09:30:20.304Z,92.30
2023-01-18T09:32:46.925Z,92.68
2023-01-18T09:35:14.349Z,93.00
2023-01-18T09:37:41.106Z,93.38
2023-01-18T09:40:16.297Z,93.19
2023-01-18T09:42:45.653Z,93.10
2023-01-18T09:45:30.320Z,92.99
2023-01-18T09:48:02.367Z,93.05
2023-01-18T09:50:32.770Z,92.48
2023-01-18T09:53:14.007Z,92.22
2023-01-18T09:55:50.321Z,92.31
2023-01-18T09:58:33.881Z,92.29
2023-01-18T10:01:05.143Z,92.35
2023-01-18T10:03:37.737Z,92.81
2023-01-18T10:06:12.973Z,93.42
2023-01-18T10:08:49.593Z,93.81
2023-01-18T10:11:22.343Z,93.89
2023-01-18T10:14:00.909Z,94.64
2023-01-18T10:16:28.155Z,95.22
2023-01-18T10:18:58.323Z,95.92
2023-01-18T10:21:47.560Z,96.32
2023-01-18T10:24:29.025Z,96.56
2023-01-18T10:27:08.499Z,96.53
2023-01-18T10:29:54.913Z,97.07
2023-01-18T10:32:26.266Z,96.95
2023-01-18T10:34:53.496Z,97.17
2023-01-18T10:37:31.140Z,97.63
2023-01-18T10:40:00.750Z,97.52
2023-01-18T10:42:34.915Z,96.69
2023-01-18T10:45:03.658Z,96.49
2023-01-18T10:47:30.403Z,95.58
2023-01-18T10:49:59.452Z,95.12
2023-01-18T10:52:28.785Z,94.94
2023-01-18T10:54:57.950Z,94.68
2023-01-18T10:57:28.912Z,94.14
2023-01-18T10:59:56.596Z,93.46
2023-01-18T11:02:31.915Z,92.97
2023-01-18T11:05:15.350Z,90.91
2023-01-18T11:07:42.808Z,89.18
2023-01-18T11:10:24.281Z,89.01
2023-01-18T11:12:50.985Z,89.69
2023-01-18T11:15:26.390Z,89.93
2023-01-18T11:18:03.317Z,90.18
2023-01-18T11:20:33.201Z,90.01
2023-01-18T11:23:03.391Z,90.19
2023-01-18T11:25:37.465Z,90.08
2023-01-18T11:28:05.611Z,91.17
2023-01-18T11:30:33.835Z,93.70
2023-01-18T11:33:03.106Z,94.61
2023-01-18T11:35:33.844Z,95.10
2023-01-18T11:38:05.305Z,95.40
2023-01-18T11:40:33.591Z,94.69
2023-01-18T11:43:05.778Z,94.15
2023-01-18T11:45:37.363Z,93.55
2023-01-18T11:48:12.564Z,92.25
2023-01-18T11:50:42.588Z,91.18
2023-01-18T11:53:20.180Z,89.39
2023-01-18T11:55:51.592Z,87.83
2023-01-18T11:58:24.952Z,87.24
2023-01-18T12:01:04.460Z,86.67
2023-01-18T12:03:46.617Z,86.56
2023-01-18T12:06:25.201Z,84.74
2023-01-18T12:09:09.790Z,83.48
2023-01-18T12:11:52.363Z,82.34
2023-01-18T12:14:34.313Z,81.87
2023-01-18T12:17:22.642Z,81.39
2023-01-18T12:20:01.419Z,80.21
2023-01-18T12:22:53.157Z,78.72
2023-01-18T12:25:35.250Z,78.06
2023-01-18T12:28:14.415Z,77.77
2023-01-18T12:30:59.609Z,78.18
2023-01-18T12:33:43.708Z,77.79
2023-01-18T12:36:46.579Z,78.34
2023-01-18T12:39:37.655Z,78.63
2023-01-18T12:42:05.836Z,76.32
2023-01-18T12:44:50.333Z,76.65
2023-01-18T12:47:31.372Z,76.48
2023-01-18T12:50:00.146Z,76.00
2023-01-18T12:52:32.416Z,75.34
2023-01-18T12:55:03.550Z,74.00
2023-01-18T12:57:30.650Z,73.77
2023-01-18T13:00:02.698Z,74.30
2023-01-18T13:02:33.360Z,75.58
2023-01-18T13:05:04.144Z,75.14
2023-01-18T13:07:37.568Z,75.65
2023-01-18T13:10:06.835Z,75.40
2023-01-18T13:12:34.498Z,75.56
2023-01-18T13:15:08.397Z,76.29
2023-01-18T13:17:41.277Z,77.23
2023-01-18T13:20:17.104Z,78.20
2023-01-18T13:22:59.349Z,79.63
2023-01-18T13:25:41.270Z,81.50
2023-01-18T13:28:17.548Z,82.45
2023-01-18T13:30:51.957Z,82.10
2023-01-18T13:33:21.886Z,82.12
2023-01-18T13:35:51.540Z,80.41
2023-01-18T13:38:36.214Z,79.57
2023-01-18T13:41:09.935Z,78.34
2023-01-18T13:44:11.976Z,78.42
2023-01-18T13:46:38.740Z,79.01
2023-01-18T13:49:37.618Z,79.62
2023-01-18T13:52:31.133Z,79.17
2023-01-18T13:55:02.625Z,78.09
2023-01-18T13:57:31.978Z,77.66
2023-01-18T13:59:59.685Z,77.95
2023-01-18T14:02:30.133Z,78.33
2023-01-18T14:05:04.409Z,79.19
2023-01-18T14:07:42.658Z,80.24
2023-01-18T14:10:28.062Z,81.14
2023-01-18T14:12:56.178Z,82.74
2023-01-18T14:15:25.805Z,82.85
2023-01-18T14:17:58.549Z,82.53
2023-01-18T14:20:52.093Z,82.32
2023-01-18T14:23:52.542Z,82.51
2023-01-18T14:26:22.020Z,82.75
2023-01-18T14:28:57.263Z,84.09
2023-01-18T14:31:29.505Z,84.46
2023-01-18T14:33:56.369Z,84.04
2023-01-18T14:36:25.202Z,84.76
2023-01-18T14:39:08.617Z,86.23
2023-01-18T14:41:36.775Z,83.85
2023-01-18T14:44:03.816Z,83.32
2023-01-18T14:46:30.625Z,83.51
2023-01-18T14:48:59.775Z,83.55
2023-01-18T14:51:28.258Z,82.77
2023-01-18T14:53:57.913Z,81.79
2023-01-18T14:56:27.038Z,79.81
2023-01-18T14:58:57.223Z,77.53
2023-01-18T15:01:28.486Z,75.05
2023-01-18T15:03:56.150Z,72.24
2023-01-18T15:06:33.285Z,69.37
2023-01-18T15:09:01.301Z,66.91
2023-01-18T15:11:28.349Z,65.22
2023-01-18T15:13:57.923Z,64.63
2023-01-18T15:16:28.631Z,65.73
2023-01-18T15:18:56.914Z,66.06
2023-01-18T15:21:27.983Z,65.37
2023-01-18T15:24:02.645Z,66.41
2023-01-18T15:26:44.207Z,65.50
2023-01-18T15:29:19.635Z,66.81
2023-01-18T15:31:50.145Z,68.71
2023-01-18T15:34:22.052Z,70.91
2023-01-18T15:36:49.178Z,72.79
2023-01-18T15:39:15.943Z,74.44
2023-01-18T15:41:43.896Z,76.10
2023-01-18T15:44:46.481Z,78.79
2023-01-18T15:47:21.916Z,79.45
2023-01-18T15:49:50.899Z,80.36
2023-01-18T15:52:39.765Z,81.77
2023-01-18T15:55:08.964Z,83.05
2023-01-18T15:57:36.518Z,85.43
2023-01-18T16:00:05.958Z,86.13
2023-01-18T16:02:32.862Z,86.64
2023-01-18T16:05:10.186Z,87.91
2023-01-18T16:07:38.858Z,88.05
2023-01-18T16:10:24.228Z,88.20
2023-01-18T16:12:50.863Z,88.41
2023-01-18T16:15:27.537Z,88.86
2023-01-18T16:18:01.689Z,89.57
2023-01-18T16:20:29.809Z,89.69
2023-01-18T16:23:03.074Z,90.12
2023-01-18T16:25:29.953Z,90.36
2023-01-18T16:27:57.045Z,90.34
2023-01-18T16:30:33.840Z,90.38
2023-01-18T16:33:07.471Z,90.52
2023-01-18T16:35:34.126Z,91.00
2023-01-18T16:38:01.081Z,91.04
2023-01-18T16:40:28.675Z,91.99
2023-01-18T16:42:58.952Z,92.63
2023-01-18T16:45:27.677Z,92.08
2023-01-18T16:47:54.364Z,92.22
2023-01-18T16:50:21.672Z,92.70
2023-01-18T16:52:48.366Z,92.34
2023-01-18T16:55:16.379Z,92.22
2023-01-18T16:57:43.687Z,92.26
2023-01-18T17:00:16.741Z,92.36
2023-01-18T17:02:44.977Z,92.09
2023-01-18T17:05:12.724Z,91.90
2023-01-18T17:07:39.573Z,92.22
2023-01-18T17:10:17.465Z,92.65
2023-01-18T17:12:44.091Z,92.60
2023-01-18T17:15:11.355Z,92.32
2023-01-18T17:17:38.064Z,91.89
2023-01-18T17:20:16.212Z,92.36
2023-01-18T17:22:45.218Z,92.10
2023-01-18T17:25:14.843Z,92.64
2023-01-18T17:27:41.469Z,92.58
2023-01-18T17:30:09.847Z,92.88
2023-01-18T17:32:36.819Z,93.10
2023-01-18T17:35:06.004Z,92.89
2023-01-18T17:37:35.415Z,92.25
2023-01-18T17:40:16.459Z,91.93
2023-01-18T17:42:44.226Z,93.17
2023-01-18T17:45:11.029Z,93.32
2023-01-18T17:47:37.668Z,93.09
2023-01-18T17:50:05.708Z,92.64
2023-01-18T17:52:33.741Z,92.58
2023-01-18T17:55:00.422Z,92.46
2023-01-18T17:57:27.137Z,92.48
2023-01-18T17:59:53.997Z,92.68
2023-01-18T18:02:20.849Z,92.94
2023-01-18T18:04:47.677Z,93.18
2023-01-18T18:07:14.325Z,93.47
2023-01-18T18:09:42.417Z,93.12
2023-01-18T18:12:10.137Z,93.63
2023-01-18T18:14:37.170Z,93.78
2023-01-18T18:17:05.658Z,93.29
2023-01-18T18:19:33.055Z,92.82
2023-01-18T18:22:00.321Z,92.46
2023-01-18T18:24:27.217Z,92.83
2023-01-18T18:26:55.414Z,92.97
2023-01-18T18:29:22.072Z,93.14
2023-01-18T18:31:48.883Z,93.14
2023-01-18T18:34:15.653Z,92.57
2023-01-18T18:36:42.399Z,92.13
2023-01-18T18:39:09.044Z,91.81
2023-01-18T18:41:36.655Z,91.85
2023-01-18T18:44:04.832Z,93.26
2023-01-18T18:46:31.581Z,92.86
2023-01-18T18:48:58.378Z,93.00
2023-01-18T18:51:25.387Z,93.05
2023-01-18T18:53:52.089Z,93.37
2023-01-18T18:56:18.997Z,93.29
2023-01-18T18:58:47.511Z,93.80
2023-01-18T19:01:21.439Z,93.63
2023-01-18T19:03:48.834Z,93.11
2023-01-18T19:06:15.996Z,92.92
2023-01-18T19:08:42.781Z,92.95
2023-01-18T19:11:09.557Z,93.32
2023-01-18T19:13:36.283Z,93.13
2023-01-18T19:16:03.373Z,92.53
2023-01-18T19:18:32.506Z,92.62
2023-01-18T19:21:02.348Z,92.39
2023-01-18T19:23:29.208Z,91.98
2023-01-18T19:25:56.055Z,92.00
2023-01-18T19:28:22.694Z,92.03
2023-01-18T19:30:49.420Z,91.98
2023-01-18T19:33:16.163Z,92.35
2023-01-18T19:35:45.989Z,92.36
2023-01-18T19:38:13.179Z,92.88
2023-01-18T19:40:39.859Z,93.57
2023-01-18T19:43:06.465Z,93.59
2023-01-18T19:45:33.317Z,94.03
2023-01-18T19:48:00.480Z,94.36
2023-01-18T19:50:28.799Z,94.52
2023-01-18T19:52:56.994Z,94.83
2023-01-18T19:55:26.630Z,95.11
2023-01-18T19:57:55.706Z,95.29
2023-01-18T20:00:22.524Z,95.47
2023-01-18T20:02:49.478Z,95.72
2023-01-18T20:05:16.431Z,95.71
2023-01-18T20:07:43.110Z,95.39
2023-01-18T20:10:11.862Z,95.11
2023-01-18T20:12:38.536Z,94.88
2023-01-18T20:15:06.381Z,95.16
2023-01-18T20:17:33.106Z,95.13
2023-01-18T20:19:59.835Z,95.09
2023-01-18T20:22:26.654Z,95.43
2023-01-18T20:24:53.311Z,95.37
2023-01-18T20:27:21.338Z,95.37
2023-01-18T20:29:48.108Z,95.55
2023-01-18T20:32:17.910Z,95.33
2023-01-18T20:34:45.429Z,94.94
2023-01-18T20:37:12.554Z,94.53
2023-01-18T20:39:39.443Z,94.54
2023-01-18T20:42:06.151Z,94.71
2023-01-18T20:44:34.417Z,94.56
2023-01-18T20:47:02.007Z,94.60
2023-01-18T20:49:43.974Z,94.48
2023-01-18T20:52:10.770Z,93.67
2023-01-18T20:54:37.704Z,92.90
2023-01-18T20:57:04.838Z,92.53
2023-01-18T20:59:31.521Z,92.49
2023-01-18T21:01:59.821Z,92.34
2023-01-18T21:04:26.909Z,92.36
2023-01-18T21:06:53.679Z,92.36
2023-01-18T21:09:20.348Z,92.33
2023-01-18T21:11:47.019Z,92.41
2023-01-18T21:14:13.689Z,91.80
2023-01-18T21:16:40.465Z,91.31
2023-01-18T21:19:08.949Z,90.88
2023-01-18T21:21:35.643Z,90.49
2023-01-18T21:24:02.357Z,90.11
2023-01-18T21:26:28.997Z,89.87
2023-01-18T21:28:55.664Z,89.74
2023-01-18T21:31:22.509Z,88.81
2023-01-18T21:33:49.250Z,88.19
2023-01-18T21:36:18.195Z,88.02
2023-01-18T21:38:45.005Z,88.17
2023-01-18T21:41:11.984Z,88.38
2023-01-18T21:43:38.669Z,88.58
2023-01-18T21:46:07.451Z,88.80
2023-01-18T21:48:34.098Z,88.39
2023-01-18T21:51:02.192Z,87.92
2023-01-18T21:53:30.213Z,88.08
2023-01-18T21:55:56.880Z,88.34
2023-01-18T21:58:23.538Z,88.23
2023-01-18T22:00:50.251Z,88.48
2023-01-18T22:03:16.905Z,88.08
2023-01-18T22:05:43.568Z,88.03
2023-01-18T22:08:10.290Z,88.29
2023-01-18T22:10:38.441Z,87.90
2023-01-18T22:13:05.291Z,87.51
2023-01-18T22:15:31.937Z,87.54
2023-01-18T22:17:58.710Z,87.83
2023-01-18T22:20:25.677Z,87.55
2023-01-18T22:22:52.347Z,87.59
2023-01-18T22:25:18.988Z,88.15
2023-01-18T22:27:47.093Z,88.45
2023-01-18T22:30:13.967Z,88.58
2023-01-18T22:32:40.649Z,88.78
2023-01-18T22:35:07.763Z,88.47
2023-01-18T22:37:34.464Z,88.62
2023-01-18T22:40:01.157Z,88.14
2023-01-18T22:42:27.844Z,87.74
2023-01-18T22:44:55.874Z,87.88
2023-01-18T22:47:22.564Z,88.38
2023-01-18T22:49:49.320Z,88.16
2023-01-18T22:52:16.038Z,87.81
2023-01-18T22:54:42.714Z,87.55
2023-01-18T22:57:09.552Z,87.33
2023-01-18T22:59:36.234Z,87.18
2023-01-18T23:02:04.328Z,86.46
2023-01-18T23:04:31.277Z,87.01
2023-01-18T23:06:58.012Z,87.84
2023-01-18T23:09:24.787Z,87.31
2023-01-18T23:11:51.691Z,86.81
2023-01-18T23:14:18.636Z,86.71
2023-01-18T23:16:45.405Z,87.00
2023-01-18T23:19:13.539Z,86.92
2023-01-18T23:21:40.222Z,87.09
2023-01-18T23:24:07.121Z,87.39
2023-01-18T23:26:33.819Z,87.85
2023-01-18T23:29:00.503Z,88.34
2023-01-18T23:31:27.232Z,88.58
2023-01-18T23:33:54.006Z,88.49
2023-01-18T23:36:22.093Z,88.32
2023-01-18T23:38:48.791Z,88.32
2023-01-18T23:41:15.543Z,88.62
2023-01-18T23:43:42.278Z,88.67
2023-01-18T23:46:08.988Z,88.47
2023-01-18T23:48:35.689Z,88.37
2023-01-18T23:51:03.347Z,88.61
2023-01-18T23:53:31.394Z,88.68
2023-01-18T23:55:59.296Z,88.59
2023-01-18T23:58:26.426Z,88.71
